createdAt,value
2019-05-09T00:00:45.173Z,10.36
2019-05-09T00:04:53.269Z,10.41
2019-05-09T00:09:13.847Z,10.33
2019-05-09T00:13:20.902Z,10.16
2019-05-09T00:17:27.706Z,10.22
2019-05-09T00:21:40.002Z,10.14
2019-05-09T00:25:46.718Z,10.18
2019-05-09T00:29:54.208Z,10.11
2019-05-09T00:34:04.756Z,10.13
2019-05-09T00:38:13.266Z,10.06
2019-05-09T00:42:20.060Z,10.08
2019-05-09T00:46:49.602Z,10.02
2019-05-09T00:50:56.337Z,10.03
2019-05-09T00:55:03.891Z,9.96
2019-05-09T00:59:13.343Z,9.90
2019-05-09T01:03:19.452Z,9.85
2019-05-09T01:07:26.202Z,9.89
2019-05-09T01:11:33.353Z,9.83
2019-05-09T01:15:40.272Z,9.74
2019-05-09T01:19:47.007Z,9.63
2019-05-09T01:23:54.226Z,9.58
2019-05-09T01:28:03.129Z,9.68
2019-05-09T01:32:16.445Z,9.59
2019-05-09T01:36:23.538Z,9.53
2019-05-09T01:40:30.366Z,9.53
2019-05-09T01:44:37.418Z,9.41
2019-05-09T01:48:43.609Z,9.42
2019-05-09T01:52:50.308Z,9.35
2019-05-09T01:56:57.043Z,9.42
2019-05-09T02:01:06.323Z,9.46
2019-05-09T02:05:13.664Z,9.47
2019-05-09T02:09:23.268Z,9.45
2019-05-09T02:13:29.339Z,9.40
2019-05-09T02:17:55.777Z,9.43
2019-05-09T02:21:53.124Z,9.42
2019-05-09T02:26:01.175Z,9.37
2019-05-09T02:30:09.234Z,9.39
2019-05-09T02:34:15.912Z,9.36
2019-05-09T02:38:22.605Z,9.27
2019-05-09T02:42:29.471Z,9.29
2019-05-09T02:46:49.258Z,9.25
2019-05-09T02:50:56.102Z,9.10
2019-05-09T02:55:02.762Z,9.17
2019-05-09T02:59:18.973Z,9.04
2019-05-09T03:03:30.635Z,9.09
2019-05-09T03:07:52.620Z,9.14
2019-05-09T03:12:20.492Z,9.07
2019-05-09T03:16:12.796Z,9.01
2019-05-09T03:20:28.941Z,9.01
2019-05-09T03:24:34.894Z,9.07
2019-05-09T03:28:59.380Z,9.14
2019-05-09T03:33:09.958Z,9.24
2019-05-09T03:37:17.632Z,9.30
2019-05-09T03:41:24.639Z,9.38
2019-05-09T03:45:32.902Z,9.36
2019-05-09T03:49:39.626Z,9.41
2019-05-09T03:53:48.415Z,9.40
2019-05-09T03:58:00.726Z,9.32
2019-05-09T04:02:09.824Z,9.45
2019-05-09T04:06:18.287Z,9.39
2019-05-09T04:10:24.330Z,9.44
2019-05-09T04:14:33.233Z,9.53
2019-05-09T04:18:40.444Z,9.44
2019-05-09T04:22:49.030Z,9.40
2019-05-09T04:27:09.570Z,9.59
2019-05-09T04:31:17.769Z,9.52
2019-05-09T04:35:24.706Z,9.63
2019-05-09T04:39:31.378Z,9.73
2019-05-09T04:43:39.879Z,9.66
2019-05-09T04:47:47.198Z,9.62
2019-05-09T04:51:54.105Z,9.72
2019-05-09T04:56:07.258Z,9.74
2019-05-09T05:00:18.402Z,9.64
2019-05-09T05:04:28.257Z,9.68
2019-05-09T05:08:37.417Z,9.66
2019-05-09T05:12:43.578Z,9.69
2019-05-09T05:16:54.034Z,9.76
2019-05-09T05:21:02.460Z,9.75
2019-05-09T05:25:09.464Z,9.73
2019-05-09T05:29:17.725Z,9.96
2019-05-09T05:33:53.631Z,9.88
2019-05-09T05:37:58.259Z,9.93
2019-05-09T05:42:05.054Z,10.20
2019-05-09T05:46:37.917Z,10.14
2019-05-09T05:50:44.862Z,10.12
2019-05-09T05:54:51.573Z,10.06
2019-05-09T05:58:58.306Z,9.96
2019-05-09T06:03:05.317Z,9.98
2019-05-09T06:07:12.218Z,10.29
2019-05-09T06:11:19.438Z,10.31
2019-05-09T06:15:28.828Z,10.33
2019-05-09T06:19:37.923Z,10.73
2019-05-09T06:23:44.343Z,10.77
2019-05-09T06:27:54.693Z,10.94
2019-05-09T06:32:01.498Z,10.85
2019-05-09T06:36:08.725Z,10.99
2019-05-09T06:40:22.309Z,11.16
2019-05-09T06:44:38.739Z,11.26
2019-05-09T06:48:47.831Z,11.48
2019-05-09T06:52:54.025Z,11.44
2019-05-09T06:57:00.862Z,11.72
2019-05-09T07:01:29.570Z,11.70
2019-05-09T07:05:57.476Z,11.58
2019-05-09T07:10:07.451Z,11.68
2019-05-09T07:14:38.257Z,11.63
2019-05-09T07:18:42.942Z,11.46
2019-05-09T07:22:52.886Z,11.43
2019-05-09T07:26:59.790Z,11.21
2019-05-09T07:31:25.505Z,11.21
2019-05-09T07:35:32.857Z,10.98
2019-05-09T07:39:39.649Z,11.07
2019-05-09T07:43:47.769Z,11.21
2019-05-09T07:47:54.877Z,11.08
2019-05-09T07:52:06.599Z,11.49
2019-05-09T07:56:10.788Z,11.70
2019-05-09T08:00:34.049Z,11.34
2019-05-09T08:04:40.796Z,11.44
2019-05-09T08:08:48.016Z,11.37
2019-05-09T08:12:54.800Z,11.14
2019-05-09T08:17:01.797Z,11.26
2019-05-09T08:21:08.663Z,11.19
2019-05-09T08:25:18.196Z,11.37
2019-05-09T08:29:24.304Z,11.48
2019-05-09T08:33:31.017Z,11.51
2019-05-09T08:37:39.021Z,11.77
2019-05-09T08:41:48.441Z,11.87
2019-05-09T08:45:54.334Z,11.73
2019-05-09T08:50:17.679Z,11.78
2019-05-09T08:54:41.829Z,11.51
2019-05-09T08:58:48.744Z,11.41
2019-05-09T09:02:57.382Z,11.54
2019-05-09T09:07:04.541Z,11.60
2019-05-09T09:11:11.217Z,11.34
2019-05-09T09:15:19.043Z,11.67
2019-05-09T09:19:27.892Z,11.51
2019-05-09T09:23:44.194Z,11.16
2019-05-09T09:27:47.713Z,11.24
2019-05-09T09:31:52.997Z,11.29
2019-05-09T09:35:59.697Z,11.31
2019-05-09T09:40:08.612Z,11.32
2019-05-09T09:44:17.840Z,11.36
2019-05-09T09:48:24.016Z,11.91
2019-05-09T09:52:34.110Z,11.88
2019-05-09T09:56:39.154Z,11.98
2019-05-09T10:01:09.219Z,12.04
2019-05-09T10:05:18.405Z,12.22
2019-05-09T10:09:24.447Z,12.41
2019-05-09T10:13:31.195Z,12.36
2019-05-09T10:17:47.574Z,12.13
2019-05-09T10:21:57.777Z,12.13
2019-05-09T10:26:04.843Z,12.49
2019-05-09T10:30:13.162Z,12.51
2019-05-09T10:34:19.877Z,12.48
2019-05-09T10:38:27.993Z,12.25
2019-05-09T10:42:54.059Z,11.92
2019-05-09T10:47:15.924Z,11.79
2019-05-09T10:51:22.868Z,11.61
2019-05-09T10:55:29.703Z,11.48
2019-05-09T10:59:37.651Z,11.57
2019-05-09T11:03:48.314Z,11.80
2019-05-09T11:07:55.493Z,11.89
2019-05-09T11:12:02.247Z,11.69
2019-05-09T11:16:09.098Z,11.52
2019-05-09T11:20:19.162Z,11.63
2019-05-09T11:24:40.588Z,11.51
2019-05-09T11:28:32.797Z,11.51
2019-05-09T11:32:39.594Z,11.53
2019-05-09T11:36:46.278Z,11.42
2019-05-09T11:40:54.962Z,11.39
2019-05-09T11:45:01.424Z,11.53
2019-05-09T11:49:08.742Z,11.48
2019-05-09T11:53:17.641Z,11.58
2019-05-09T11:57:27.573Z,11.68
2019-05-09T12:01:32.945Z,11.68
2019-05-09T12:05:39.688Z,11.48
2019-05-09T12:09:48.667Z,11.80
2019-05-09T12:13:54.884Z,11.63
2019-05-09T12:18:07.489Z,11.49
2019-05-09T12:22:10.605Z,11.57
2019-05-09T12:26:17.943Z,11.85
2019-05-09T12:30:25.016Z,11.69
2019-05-09T12:34:32.060Z,11.80
2019-05-09T12:38:38.994Z,11.90
2019-05-09T12:42:45.682Z,11.78
2019-05-09T12:46:52.415Z,11.92
2019-05-09T12:50:59.303Z,11.84
2019-05-09T12:55:08.201Z,11.85
2019-05-09T12:59:15.189Z,11.82
2019-05-09T13:03:21.880Z,11.75
2019-05-09T13:07:29.768Z,11.80
2019-05-09T13:11:38.673Z,11.70
2019-05-09T13:15:52.617Z,11.64
2019-05-09T13:19:59.433Z,11.64
2019-05-09T13:24:08.427Z,11.65
2019-05-09T13:28:14.534Z,11.49
2019-05-09T13:32:23.210Z,11.58
2019-05-09T13:36:29.665Z,11.28
2019-05-09T13:40:36.571Z,11.26
2019-05-09T13:44:43.326Z,11.07
2019-05-09T13:49:06.509Z,11.09
2019-05-09T13:52:58.676Z,11.13
2019-05-09T13:57:05.603Z,11.12
2019-05-09T14:01:12.975Z,11.26
2019-05-09T14:05:19.853Z,11.13
2019-05-09T14:09:29.201Z,11.30
2019-05-09T14:13:38.306Z,11.23
2019-05-09T14:17:49.520Z,11.18
2019-05-09T14:21:52.727Z,11.11
2019-05-09T14:25:59.487Z,11.25
2019-05-09T14:30:08.145Z,11.35
2019-05-09T14:34:15.167Z,11.33
2019-05-09T14:38:21.896Z,11.29
2019-05-09T14:42:29.125Z,11.40
2019-05-09T14:46:39.214Z,11.37
2019-05-09T14:50:45.647Z,11.35
2019-05-09T14:54:52.337Z,11.52
2019-05-09T14:58:59.081Z,11.60
2019-05-09T15:03:07.762Z,11.65
2019-05-09T15:07:14.811Z,11.70
2019-05-09T15:11:23.658Z,11.59
2019-05-09T15:15:32.705Z,11.77
2019-05-09T15:19:38.986Z,11.91
2019-05-09T15:23:47.992Z,11.83
2019-05-09T15:27:54.413Z,12.07
2019-05-09T15:32:05.235Z,12.28
2019-05-09T15:36:09.554Z,12.47
2019-05-09T15:40:17.702Z,13.02
2019-05-09T15:44:24.726Z,13.31
2019-05-09T15:48:31.475Z,13.50
2019-05-09T15:52:39.131Z,13.25
2019-05-09T15:56:48.374Z,13.26
2019-05-09T16:00:54.383Z,13.44
2019-05-09T16:05:01.145Z,13.33
2019-05-09T16:09:11.937Z,13.01
2019-05-09T16:13:17.703Z,13.17
2019-05-09T16:17:24.761Z,13.09
2019-05-09T16:21:31.509Z,12.98
2019-05-09T16:25:38.805Z,12.94
2019-05-09T16:29:45.632Z,13.08
2019-05-09T16:33:52.476Z,12.90
2019-05-09T16:38:06.312Z,12.93
2019-05-09T16:42:08.277Z,12.99
2019-05-09T16:46:15.039Z,13.03
2019-05-09T16:50:23.048Z,12.97
2019-05-09T16:54:34.334Z,13.02
2019-05-09T16:58:41.031Z,13.09
2019-05-09T17:02:48.838Z,13.02
2019-05-09T17:06:57.630Z,13.09
2019-05-09T17:11:07.721Z,12.86
2019-05-09T17:15:18.899Z,12.81
2019-05-09T17:19:28.095Z,12.77
2019-05-09T17:23:34.080Z,12.70
2019-05-09T17:27:40.794Z,12.66
2019-05-09T17:31:48.789Z,12.66
2019-05-09T17:35:57.785Z,12.72
2019-05-09T17:40:04.833Z,12.83
2019-05-09T17:44:11.789Z,12.95
2019-05-09T17:48:18.649Z,13.04
2019-05-09T17:52:25.511Z,13.07
2019-05-09T17:56:32.425Z,12.93
2019-05-09T18:00:39.575Z,13.01
2019-05-09T18:04:48.040Z,12.83
2019-05-09T18:08:57.489Z,12.73
2019-05-09T18:13:03.549Z,12.82
2019-05-09T18:17:12.756Z,12.82
2019-05-09T18:21:19.537Z,12.87
2019-05-09T18:25:26.932Z,12.72
2019-05-09T18:29:33.701Z,12.67
2019-05-09T18:33:54.438Z,12.64
2019-05-09T18:38:01.603Z,12.65
2019-05-09T18:42:08.779Z,12.57
2019-05-09T18:46:17.905Z,12.52
2019-05-09T18:50:24.319Z,12.51
2019-05-09T18:54:31.056Z,12.66
2019-05-09T18:58:37.809Z,12.55
2019-05-09T19:02:46.336Z,12.57
2019-05-09T19:06:53.200Z,12.55
2019-05-09T19:10:59.951Z,12.53
2019-05-09T19:15:08.999Z,12.57
2019-05-09T19:19:47.014Z,12.51
2019-05-09T19:24:02.583Z,12.36
2019-05-09T19:28:09.289Z,12.39
2019-05-09T19:32:16.712Z,12.37
2019-05-09T19:36:23.425Z,12.45
2019-05-09T19:40:30.206Z,12.45
2019-05-09T19:44:39.202Z,12.45
2019-05-09T19:48:46.220Z,12.42
2019-05-09T19:52:52.917Z,12.44
2019-05-09T19:56:59.676Z,12.38
2019-05-09T20:01:06.667Z,12.42
2019-05-09T20:05:14.617Z,12.26
2019-05-09T20:09:40.215Z,12.26
2019-05-09T20:14:21.027Z,12.24
2019-05-09T20:18:27.784Z,12.11
2019-05-09T20:22:34.519Z,12.12
2019-05-09T20:26:41.373Z,12.11
2019-05-09T20:30:48.352Z,12.02
2019-05-09T20:34:55.134Z,12.01
2019-05-09T20:39:02.224Z,11.98
2019-05-09T20:43:10.358Z,11.99
2019-05-09T20:47:17.573Z,12.08
2019-05-09T20:51:26.353Z,11.97
2019-05-09T20:55:33.359Z,12.03
2019-05-09T20:59:40.402Z,12.06
2019-05-09T21:03:59.675Z,12.05
2019-05-09T21:07:56.368Z,12.08
2019-05-09T21:12:03.210Z,12.11
2019-05-09T21:16:10.166Z,12.06
2019-05-09T21:20:17.258Z,12.02
2019-05-09T21:24:24.226Z,11.91
2019-05-09T21:28:31.146Z,12.04
2019-05-09T21:32:38.086Z,11.97
2019-05-09T21:36:44.829Z,11.82
2019-05-09T21:40:51.725Z,11.79
2019-05-09T21:44:58.518Z,11.81
2019-05-09T21:49:05.408Z,11.72
2019-05-09T21:53:12.416Z,11.73
2019-05-09T21:57:19.161Z,11.57
2019-05-09T22:01:26.513Z,11.57
2019-05-09T22:05:33.457Z,11.46
2019-05-09T22:09:40.231Z,11.48
2019-05-09T22:13:47.151Z,11.51
2019-05-09T22:17:53.937Z,11.47
2019-05-09T22:22:00.777Z,11.55
2019-05-09T22:26:07.770Z,11.49
2019-05-09T22:30:16.115Z,11.54
2019-05-09T22:34:23.027Z,11.47
2019-05-09T22:38:29.841Z,11.48
2019-05-09T22:42:36.729Z,11.44
2019-05-09T22:46:43.549Z,11.40
2019-05-09T22:50:50.273Z,11.36
2019-05-09T22:54:57.176Z,11.30
2019-05-09T22:59:04.061Z,11.21
2019-05-09T23:03:10.810Z,11.18
2019-05-09T23:07:18.822Z,11.19
2019-05-09T23:11:25.861Z,11.21
2019-05-09T23:15:32.987Z,11.22
2019-05-09T23:19:39.779Z,11.18
2019-05-09T23:23:59.060Z,11.23
2019-05-09T23:28:05.976Z,11.28
2019-05-09T23:32:35.401Z,11.34
2019-05-09T23:36:42.185Z,11.33
2019-05-09T23:40:48.972Z,11.36
2019-05-09T23:44:55.837Z,11.28
2019-05-09T23:49:02.566Z,11.28
2019-05-09T23:53:10.390Z,11.29
2019-05-09T23:57:35.352Z,11.33
